sensor_id;sensor_type;location;lat;lon;timestamp;temperature;humidity
47168;DHT22;32931;47.778;17.806;2023-03-12T00:00:58;2.00;91.00
47168;DHT22;32931;47.778;17.806;2023-03-12T00:03:26;2.00;90.90
47168;DHT22;32931;47.778;17.806;2023-03-12T00:05:52;2.00;91.30
47168;DHT22;32931;47.778;17.806;2023-03-12T00:08:18;1.90;91.30
47168;DHT22;32931;47.778;17.806;2023-03-12T00:10:44;1.90;91.60
47168;DHT22;32931;47.778;17.806;2023-03-12T00:13:10;1.90;91.50
47168;DHT22;32931;47.778;17.806;2023-03-12T00:15:38;1.90;91.60
47168;DHT22;32931;47.778;17.806;2023-03-12T00:18:04;1.90;92.00
47168;DHT22;32931;47.778;17.806;2023-03-12T00:20:30;1.80;92.10
47168;DHT22;32931;47.778;17.806;2023-03-12T00:22:57;1.70;92.10
47168;DHT22;32931;47.778;17.806;2023-03-12T00:25:23;1.70;92.30
47168;DHT22;32931;47.778;17.806;2023-03-12T00:27:49;1.70;92.60
47168;DHT22;32931;47.778;17.806;2023-03-12T00:30:15;1.70;92.50
47168;DHT22;32931;47.778;17.806;2023-03-12T00:32:41;1.70;92.60
47168;DHT22;32931;47.778;17.806;2023-03-12T00:35:08;1.70;92.60
47168;DHT22;32931;47.778;17.806;2023-03-12T00:37:36;1.60;92.70
47168;DHT22;32931;47.778;17.806;2023-03-12T00:40:03;1.60;92.70
47168;DHT22;32931;47.778;17.806;2023-03-12T00:42:31;1.60;92.50
47168;DHT22;32931;47.778;17.806;2023-03-12T00:44:57;1.70;92.50
47168;DHT22;32931;47.778;17.806;2023-03-12T00:47:23;1.70;92.40
47168;DHT22;32931;47.778;17.806;2023-03-12T00:49:49;1.70;92.20
47168;DHT22;32931;47.778;17.806;2023-03-12T00:52:15;1.70;92.30
47168;DHT22;32931;47.778;17.806;2023-03-12T00:54:41;1.60;92.30
47168;DHT22;32931;47.778;17.806;2023-03-12T00:57:08;1.60;92.40
47168;DHT22;32931;47.778;17.806;2023-03-12T00:59:34;1.70;92.30
47168;DHT22;32931;47.778;17.806;2023-03-12T01:02:00;1.60;92.40
47168;DHT22;32931;47.778;17.806;2023-03-12T01:04:26;1.60;92.30
47168;DHT22;32931;47.778;17.806;2023-03-12T01:06:54;1.60;92.50
47168;DHT22;32931;47.778;17.806;2023-03-12T01:09:20;1.50;92.50
47168;DHT22;32931;47.778;17.806;2023-03-12T01:11:46;1.40;92.70
47168;DHT22;32931;47.778;17.806;2023-03-12T01:14:12;1.40;92.70
47168;DHT22;32931;47.778;17.806;2023-03-12T01:16:39;1.40;92.90
47168;DHT22;32931;47.778;17.806;2023-03-12T01:19:05;1.30;92.90
47168;DHT22;32931;47.778;17.806;2023-03-12T01:21:31;1.30;93.10
47168;DHT22;32931;47.778;17.806;2023-03-12T01:23:57;1.30;93.20
47168;DHT22;32931;47.778;17.806;2023-03-12T01:26:24;1.30;93.10
47168;DHT22;32931;47.778;17.806;2023-03-12T01:28:50;1.30;93.20
47168;DHT22;32931;47.778;17.806;2023-03-12T01:31:17;1.30;93.10
47168;DHT22;32931;47.778;17.806;2023-03-12T01:33:46;1.30;93.00
47168;DHT22;32931;47.778;17.806;2023-03-12T01:36:24;1.20;93.10
47168;DHT22;32931;47.778;17.806;2023-03-12T01:38:56;1.30;93.40
47168;DHT22;32931;47.778;17.806;2023-03-12T01:41:24;1.20;93.50
47168;DHT22;32931;47.778;17.806;2023-03-12T01:43:51;1.20;93.50
47168;DHT22;32931;47.778;17.806;2023-03-12T01:46:35;1.20;93.70
47168;DHT22;32931;47.778;17.806;2023-03-12T01:49:23;1.20;93.80
47168;DHT22;32931;47.778;17.806;2023-03-12T01:54:31;1.10;94.20
47168;DHT22;32931;47.778;17.806;2023-03-12T01:56:58;1.20;94.00
47168;DHT22;32931;47.778;17.806;2023-03-12T01:59:31;1.20;94.00
47168;DHT22;32931;47.778;17.806;2023-03-12T02:01:59;1.30;94.00
47168;DHT22;32931;47.778;17.806;2023-03-12T02:04:27;1.30;93.90
47168;DHT22;32931;47.778;17.806;2023-03-12T02:07:11;1.30;93.90
47168;DHT22;32931;47.778;17.806;2023-03-12T02:09:44;1.30;94.20
47168;DHT22;32931;47.778;17.806;2023-03-12T02:12:11;1.30;94.00
47168;DHT22;32931;47.778;17.806;2023-03-12T02:14:38;1.30;94.00
47168;DHT22;32931;47.778;17.806;2023-03-12T02:17:05;1.30;94.00
47168;DHT22;32931;47.778;17.806;2023-03-12T02:19:49;1.30;94.00
47168;DHT22;32931;47.778;17.806;2023-03-12T02:22:18;1.30;94.00
47168;DHT22;32931;47.778;17.806;2023-03-12T02:24:57;1.20;94.00
47168;DHT22;32931;47.778;17.806;2023-03-12T02:27:31;1.20;94.20
47168;DHT22;32931;47.778;17.806;2023-03-12T02:29:58;1.20;94.10
47168;DHT22;32931;47.778;17.806;2023-03-12T02:32:27;1.20;94.10
47168;DHT22;32931;47.778;17.806;2023-03-12T02:34:56;1.20;94.00
47168;DHT22;32931;47.778;17.806;2023-03-12T02:37:22;1.20;94.10
47168;DHT22;32931;47.778;17.806;2023-03-12T02:39:55;1.20;94.10
47168;DHT22;32931;47.778;17.806;2023-03-12T02:42:23;1.20;94.20
47168;DHT22;32931;47.778;17.806;2023-03-12T02:44:49;1.20;94.20
47168;DHT22;32931;47.778;17.806;2023-03-12T02:47:16;1.10;94.20
47168;DHT22;32931;47.778;17.806;2023-03-12T02:49:42;1.10;94.10
47168;DHT22;32931;47.778;17.806;2023-03-12T02:52:08;1.10;94.00
47168;DHT22;32931;47.778;17.806;2023-03-12T02:54:35;1.10;94.00
47168;DHT22;32931;47.778;17.806;2023-03-12T02:57:01;1.00;94.10
47168;DHT22;32931;47.778;17.806;2023-03-12T02:59:28;1.00;94.20
47168;DHT22;32931;47.778;17.806;2023-03-12T03:01:56;1.00;94.70
47168;DHT22;32931;47.778;17.806;2023-03-12T03:04:23;0.90;94.90
47168;DHT22;32931;47.778;17.806;2023-03-12T03:06:50;0.90;94.70
47168;DHT22;32931;47.778;17.806;2023-03-12T03:09:16;0.90;94.90
47168;DHT22;32931;47.778;17.806;2023-03-12T03:11:43;0.90;95.30
47168;DHT22;32931;47.778;17.806;2023-03-12T03:14:09;0.80;95.60
47168;DHT22;32931;47.778;17.806;2023-03-12T03:16:35;0.80;96.10
47168;DHT22;32931;47.778;17.806;2023-03-12T03:19:02;0.80;96.10
47168;DHT22;32931;47.778;17.806;2023-03-12T03:21:28;0.80;96.10
47168;DHT22;32931;47.778;17.806;2023-03-12T03:23:54;0.90;96.30
47168;DHT22;32931;47.778;17.806;2023-03-12T03:26:21;0.90;96.10
47168;DHT22;32931;47.778;17.806;2023-03-12T03:28:49;0.90;96.20
47168;DHT22;32931;47.778;17.806;2023-03-12T03:31:16;0.90;96.40
47168;DHT22;32931;47.778;17.806;2023-03-12T03:33:42;0.90;96.50
47168;DHT22;32931;47.778;17.806;2023-03-12T03:36:09;0.90;96.70
47168;DHT22;32931;47.778;17.806;2023-03-12T03:38:36;0.80;96.80
47168;DHT22;32931;47.778;17.806;2023-03-12T03:41:02;0.70;96.90
47168;DHT22;32931;47.778;17.806;2023-03-12T03:43:28;0.70;97.10
47168;DHT22;32931;47.778;17.806;2023-03-12T03:45:59;0.70;97.30
47168;DHT22;32931;47.778;17.806;2023-03-12T03:48:25;0.60;97.50
47168;DHT22;32931;47.778;17.806;2023-03-12T03:50:51;0.60;97.30
47168;DHT22;32931;47.778;17.806;2023-03-12T03:53:18;0.70;97.20
47168;DHT22;32931;47.778;17.806;2023-03-12T03:55:45;0.60;97.30
47168;DHT22;32931;47.778;17.806;2023-03-12T03:58:12;0.60;97.20
47168;DHT22;32931;47.778;17.806;2023-03-12T04:00:38;0.70;97.20
47168;DHT22;32931;47.778;17.806;2023-03-12T04:03:04;0.60;97.20
47168;DHT22;32931;47.778;17.806;2023-03-12T04:05:31;0.60;97.30
47168;DHT22;32931;47.778;17.806;2023-03-12T04:07:57;0.50;97.80
47168;DHT22;32931;47.778;17.806;2023-03-12T04:10:28;0.50;97.80
47168;DHT22;32931;47.778;17.806;2023-03-12T04:12:55;0.60;97.80
47168;DHT22;32931;47.778;17.806;2023-03-12T04:15:21;0.70;97.90
47168;DHT22;32931;47.778;17.806;2023-03-12T04:17:47;0.70;98.10
47168;DHT22;32931;47.778;17.806;2023-03-12T04:20:14;0.70;98.20
47168;DHT22;32931;47.778;17.806;2023-03-12T04:22:40;0.70;98.10
47168;DHT22;32931;47.778;17.806;2023-03-12T04:25:06;0.80;97.80
47168;DHT22;32931;47.778;17.806;2023-03-12T04:27:33;0.80;97.60
47168;DHT22;32931;47.778;17.806;2023-03-12T04:29:59;0.80;97.50
47168;DHT22;32931;47.778;17.806;2023-03-12T04:32:26;0.90;97.30
47168;DHT22;32931;47.778;17.806;2023-03-12T04:34:52;0.80;97.40
47168;DHT22;32931;47.778;17.806;2023-03-12T04:37:18;0.80;97.50
47168;DHT22;32931;47.778;17.806;2023-03-12T04:39:44;0.70;98.10
47168;DHT22;32931;47.778;17.806;2023-03-12T04:42:10;0.60;98.30
47168;DHT22;32931;47.778;17.806;2023-03-12T04:44:37;0.70;98.20
47168;DHT22;32931;47.778;17.806;2023-03-12T04:47:03;0.70;98.10
47168;DHT22;32931;47.778;17.806;2023-03-12T04:49:30;0.70;98.20
47168;DHT22;32931;47.778;17.806;2023-03-12T04:51:56;0.70;98.20
47168;DHT22;32931;47.778;17.806;2023-03-12T04:54:22;0.70;98.20
47168;DHT22;32931;47.778;17.806;2023-03-12T04:56:49;0.70;98.10
47168;DHT22;32931;47.778;17.806;2023-03-12T04:59:15;0.70;98.20
47168;DHT22;32931;47.778;17.806;2023-03-12T05:01:42;0.70;98.20
47168;DHT22;32931;47.778;17.806;2023-03-12T05:04:08;0.70;98.20
47168;DHT22;32931;47.778;17.806;2023-03-12T05:06:35;0.60;98.30
47168;DHT22;32931;47.778;17.806;2023-03-12T05:09:01;0.70;98.30
47168;DHT22;32931;47.778;17.806;2023-03-12T05:11:27;0.70;98.20
47168;DHT22;32931;47.778;17.806;2023-03-12T05:13:53;0.70;98.10
47168;DHT22;32931;47.778;17.806;2023-03-12T05:16:19;0.70;98.00
47168;DHT22;32931;47.778;17.806;2023-03-12T05:18:46;0.70;98.10
47168;DHT22;32931;47.778;17.806;2023-03-12T05:21:15;0.70;98.00
47168;DHT22;32931;47.778;17.806;2023-03-12T05:23:42;0.70;98.10
47168;DHT22;32931;47.778;17.806;2023-03-12T05:26:20;0.60;98.20
47168;DHT22;32931;47.778;17.806;2023-03-12T05:28:46;0.70;98.20
47168;DHT22;32931;47.778;17.806;2023-03-12T05:31:16;0.80;97.90
47168;DHT22;32931;47.778;17.806;2023-03-12T05:33:43;0.80;97.90
47168;DHT22;32931;47.778;17.806;2023-03-12T05:36:10;0.80;97.70
47168;DHT22;32931;47.778;17.806;2023-03-12T05:38:37;0.90;97.90
47168;DHT22;32931;47.778;17.806;2023-03-12T05:41:04;0.90;97.80
47168;DHT22;32931;47.778;17.806;2023-03-12T05:43:31;1.00;97.70
47168;DHT22;32931;47.778;17.806;2023-03-12T05:45:59;1.00;97.60
47168;DHT22;32931;47.778;17.806;2023-03-12T05:48:26;1.00;97.50
47168;DHT22;32931;47.778;17.806;2023-03-12T05:50:53;1.00;97.50
47168;DHT22;32931;47.778;17.806;2023-03-12T05:53:19;1.10;97.60
47168;DHT22;32931;47.778;17.806;2023-03-12T05:55:45;1.00;97.50
47168;DHT22;32931;47.778;17.806;2023-03-12T05:58:11;1.10;97.60
47168;DHT22;32931;47.778;17.806;2023-03-12T06:00:37;1.00;97.70
47168;DHT22;32931;47.778;17.806;2023-03-12T06:03:07;1.10;97.70
47168;DHT22;32931;47.778;17.806;2023-03-12T06:05:35;1.10;97.80
47168;DHT22;32931;47.778;17.806;2023-03-12T06:08:02;1.10;97.90
47168;DHT22;32931;47.778;17.806;2023-03-12T06:10:29;1.10;98.00
47168;DHT22;32931;47.778;17.806;2023-03-12T06:12:56;1.10;98.10
47168;DHT22;32931;47.778;17.806;2023-03-12T06:15:22;1.20;98.00
47168;DHT22;32931;47.778;17.806;2023-03-12T06:17:48;1.30;98.00
47168;DHT22;32931;47.778;17.806;2023-03-12T06:20:15;1.30;98.00
47168;DHT22;32931;47.778;17.806;2023-03-12T06:22:41;1.30;98.10
47168;DHT22;32931;47.778;17.806;2023-03-12T06:25:08;1.40;98.10
47168;DHT22;32931;47.778;17.806;2023-03-12T06:27:34;1.40;98.40
47168;DHT22;32931;47.778;17.806;2023-03-12T06:30:00;1.50;98.20
47168;DHT22;32931;47.778;17.806;2023-03-12T06:32:26;1.50;98.30
47168;DHT22;32931;47.778;17.806;2023-03-12T06:34:52;1.60;98.30
47168;DHT22;32931;47.778;17.806;2023-03-12T06:37:19;1.60;98.20
47168;DHT22;32931;47.778;17.806;2023-03-12T06:39:45;1.70;98.40
47168;DHT22;32931;47.778;17.806;2023-03-12T06:42:11;1.80;98.20
47168;DHT22;32931;47.778;17.806;2023-03-12T06:44:39;1.80;98.30
47168;DHT22;32931;47.778;17.806;2023-03-12T06:47:05;1.90;98.00
47168;DHT22;32931;47.778;17.806;2023-03-12T06:49:31;2.00;97.90
47168;DHT22;32931;47.778;17.806;2023-03-12T06:51:59;2.10;97.70
47168;DHT22;32931;47.778;17.806;2023-03-12T06:54:25;2.10;97.60
47168;DHT22;32931;47.778;17.806;2023-03-12T06:56:51;2.20;97.50
47168;DHT22;32931;47.778;17.806;2023-03-12T06:59:18;2.20;97.40
47168;DHT22;32931;47.778;17.806;2023-03-12T07:01:47;2.40;97.40
47168;DHT22;32931;47.778;17.806;2023-03-12T07:04:13;2.40;97.20
47168;DHT22;32931;47.778;17.806;2023-03-12T07:06:39;2.50;97.00
47168;DHT22;32931;47.778;17.806;2023-03-12T07:09:06;2.70;96.80
47168;DHT22;32931;47.778;17.806;2023-03-12T07:11:32;2.70;96.30
47168;DHT22;32931;47.778;17.806;2023-03-12T07:13:58;2.80;95.90
47168;DHT22;32931;47.778;17.806;2023-03-12T07:16:25;2.80;95.60
47168;DHT22;32931;47.778;17.806;2023-03-12T07:18:51;2.90;95.70
47168;DHT22;32931;47.778;17.806;2023-03-12T07:21:17;2.90;95.60
47168;DHT22;32931;47.778;17.806;2023-03-12T07:23:48;3.00;95.60
47168;DHT22;32931;47.778;17.806;2023-03-12T07:26:15;3.10;95.70
47168;DHT22;32931;47.778;17.806;2023-03-12T07:28:41;3.20;95.30
47168;DHT22;32931;47.778;17.806;2023-03-12T07:31:07;3.30;95.30
47168;DHT22;32931;47.778;17.806;2023-03-12T07:33:34;3.40;95.00
47168;DHT22;32931;47.778;17.806;2023-03-12T07:36:00;3.50;94.80
47168;DHT22;32931;47.778;17.806;2023-03-12T07:38:27;3.60;94.80
47168;DHT22;32931;47.778;17.806;2023-03-12T07:40:56;3.70;94.50
47168;DHT22;32931;47.778;17.806;2023-03-12T07:43:23;3.80;94.30
47168;DHT22;32931;47.778;17.806;2023-03-12T07:45:50;3.90;94.10
47168;DHT22;32931;47.778;17.806;2023-03-12T07:48:16;4.00;94.10
47168;DHT22;32931;47.778;17.806;2023-03-12T07:50:44;4.10;93.80
47168;DHT22;32931;47.778;17.806;2023-03-12T07:53:11;4.10;93.50
47168;DHT22;32931;47.778;17.806;2023-03-12T07:55:37;4.20;93.10
47168;DHT22;32931;47.778;17.806;2023-03-12T07:58:04;4.20;93.40
47168;DHT22;32931;47.778;17.806;2023-03-12T08:00:30;4.30;93.30
47168;DHT22;32931;47.778;17.806;2023-03-12T08:02:57;4.40;93.00
47168;DHT22;32931;47.778;17.806;2023-03-12T08:05:23;4.40;92.80
47168;DHT22;32931;47.778;17.806;2023-03-12T08:07:51;4.40;92.40
47168;DHT22;32931;47.778;17.806;2023-03-12T08:10:17;4.50;92.40
47168;DHT22;32931;47.778;17.806;2023-03-12T08:12:44;4.50;92.40
47168;DHT22;32931;47.778;17.806;2023-03-12T08:15:10;4.70;92.30
47168;DHT22;32931;47.778;17.806;2023-03-12T08:17:38;4.70;92.30
47168;DHT22;32931;47.778;17.806;2023-03-12T08:20:05;4.80;92.00
47168;DHT22;32931;47.778;17.806;2023-03-12T08:22:35;4.90;91.50
47168;DHT22;32931;47.778;17.806;2023-03-12T08:25:02;4.90;91.50
47168;DHT22;32931;47.778;17.806;2023-03-12T08:27:29;5.00;91.50
47168;DHT22;32931;47.778;17.806;2023-03-12T08:29:55;5.10;91.40
47168;DHT22;32931;47.778;17.806;2023-03-12T08:32:21;5.10;91.40
47168;DHT22;32931;47.778;17.806;2023-03-12T08:34:47;5.10;91.30
47168;DHT22;32931;47.778;17.806;2023-03-12T08:37:13;5.30;91.20
47168;DHT22;32931;47.778;17.806;2023-03-12T08:39:40;5.30;90.60
47168;DHT22;32931;47.778;17.806;2023-03-12T08:42:06;5.30;90.50
47168;DHT22;32931;47.778;17.806;2023-03-12T08:44:32;5.40;90.50
47168;DHT22;32931;47.778;17.806;2023-03-12T08:46:58;5.40;90.20
47168;DHT22;32931;47.778;17.806;2023-03-12T08:49:25;5.50;90.10
47168;DHT22;32931;47.778;17.806;2023-03-12T08:51:51;5.60;89.80
47168;DHT22;32931;47.778;17.806;2023-03-12T08:54:18;5.70;89.60
47168;DHT22;32931;47.778;17.806;2023-03-12T08:56:48;5.70;89.00
47168;DHT22;32931;47.778;17.806;2023-03-12T08:59:14;5.80;88.50
47168;DHT22;32931;47.778;17.806;2023-03-12T09:01:40;5.80;88.10
47168;DHT22;32931;47.778;17.806;2023-03-12T09:04:06;5.90;87.50
47168;DHT22;32931;47.778;17.806;2023-03-12T09:06:32;5.90;87.10
47168;DHT22;32931;47.778;17.806;2023-03-12T09:09:00;5.90;86.00
47168;DHT22;32931;47.778;17.806;2023-03-12T09:11:31;6.00;86.50
47168;DHT22;32931;47.778;17.806;2023-03-12T09:13:58;6.10;86.10
47168;DHT22;32931;47.778;17.806;2023-03-12T09:16:25;6.20;85.30
47168;DHT22;32931;47.778;17.806;2023-03-12T09:18:51;6.30;84.70
47168;DHT22;32931;47.778;17.806;2023-03-12T09:21:18;6.30;83.00
47168;DHT22;32931;47.778;17.806;2023-03-12T09:23:44;6.40;82.60
47168;DHT22;32931;47.778;17.806;2023-03-12T09:26:11;6.50;82.70
47168;DHT22;32931;47.778;17.806;2023-03-12T09:28:37;6.50;80.70
47168;DHT22;32931;47.778;17.806;2023-03-12T09:31:04;6.50;81.00
47168;DHT22;32931;47.778;17.806;2023-03-12T09:33:32;6.60;81.70
47168;DHT22;32931;47.778;17.806;2023-03-12T09:36:01;6.60;80.00
47168;DHT22;32931;47.778;17.806;2023-03-12T09:38:28;6.50;80.00
47168;DHT22;32931;47.778;17.806;2023-03-12T09:40:57;6.60;80.10
47168;DHT22;32931;47.778;17.806;2023-03-12T09:43:46;6.70;80.60
47168;DHT22;32931;47.778;17.806;2023-03-12T09:46:23;6.70;79.10
47168;DHT22;32931;47.778;17.806;2023-03-12T09:48:52;6.90;79.70
47168;DHT22;32931;47.778;17.806;2023-03-12T09:51:27;7.00;79.30
47168;DHT22;32931;47.778;17.806;2023-03-12T09:53:57;6.90;76.60
47168;DHT22;32931;47.778;17.806;2023-03-12T09:56:25;6.90;75.30
47168;DHT22;32931;47.778;17.806;2023-03-12T09:58:52;6.90;74.20
47168;DHT22;32931;47.778;17.806;2023-03-12T10:06:35;7.00;73.90
47168;DHT22;32931;47.778;17.806;2023-03-12T10:09:23;7.20;73.40
47168;DHT22;32931;47.778;17.806;2023-03-12T10:18:19;7.40;74.50
47168;DHT22;32931;47.778;17.806;2023-03-12T10:23:47;7.60;71.80
47168;DHT22;32931;47.778;17.806;2023-03-12T10:26:30;7.70;74.40
47168;DHT22;32931;47.778;17.806;2023-03-12T10:29:04;7.80;70.30
47168;DHT22;32931;47.778;17.806;2023-03-12T10:31:42;7.70;73.30
47168;DHT22;32931;47.778;17.806;2023-03-12T10:34:17;7.80;73.70
47168;DHT22;32931;47.778;17.806;2023-03-12T10:36:46;7.90;73.50
47168;DHT22;32931;47.778;17.806;2023-03-12T10:39:17;8.00;73.10
47168;DHT22;32931;47.778;17.806;2023-03-12T10:41:46;8.00;68.50
47168;DHT22;32931;47.778;17.806;2023-03-12T10:44:30;8.00;70.00
47168;DHT22;32931;47.778;17.806;2023-03-12T10:49:34;8.00;70.00
47168;DHT22;32931;47.778;17.806;2023-03-12T10:54:46;8.20;67.30
47168;DHT22;32931;47.778;17.806;2023-03-12T10:57:14;8.20;68.40
47168;DHT22;32931;47.778;17.806;2023-03-12T10:59:43;8.30;70.10
47168;DHT22;32931;47.778;17.806;2023-03-12T11:02:30;8.50;70.60
47168;DHT22;32931;47.778;17.806;2023-03-12T11:04:58;8.50;66.30
47168;DHT22;32931;47.778;17.806;2023-03-12T11:07:32;8.40;67.90
47168;DHT22;32931;47.778;17.806;2023-03-12T11:12:36;8.40;68.80
47168;DHT22;32931;47.778;17.806;2023-03-12T11:15:24;8.50;67.40
47168;DHT22;32931;47.778;17.806;2023-03-12T11:17:51;8.50;65.10
47168;DHT22;32931;47.778;17.806;2023-03-12T11:22:47;8.50;67.40
47168;DHT22;32931;47.778;17.806;2023-03-12T11:25:27;8.50;69.10
47168;DHT22;32931;47.778;17.806;2023-03-12T11:27:58;8.40;67.80
47168;DHT22;32931;47.778;17.806;2023-03-12T11:30:39;8.50;68.00
47168;DHT22;32931;47.778;17.806;2023-03-12T11:33:09;8.60;68.30
47168;DHT22;32931;47.778;17.806;2023-03-12T11:38:11;8.70;66.60
47168;DHT22;32931;47.778;17.806;2023-03-12T11:43:44;8.80;66.30
47168;DHT22;32931;47.778;17.806;2023-03-12T11:52:55;8.90;65.90
47168;DHT22;32931;47.778;17.806;2023-03-12T12:01:13;8.90;64.70
47168;DHT22;32931;47.778;17.806;2023-03-12T12:12:12;9.30;65.40
47168;DHT22;32931;47.778;17.806;2023-03-12T12:20:43;9.40;63.60
47168;DHT22;32931;47.778;17.806;2023-03-12T12:26:01;9.30;61.90
47168;DHT22;32931;47.778;17.806;2023-03-12T12:37:00;9.10;59.60
47168;DHT22;32931;47.778;17.806;2023-03-12T12:39:40;9.20;62.10
47168;DHT22;32931;47.778;17.806;2023-03-12T12:42:14;9.40;62.40
47168;DHT22;32931;47.778;17.806;2023-03-12T12:44:50;9.50;62.10
47168;DHT22;32931;47.778;17.806;2023-03-12T12:47:39;9.70;61.50
47168;DHT22;32931;47.778;17.806;2023-03-12T12:50:15;9.80;64.00
47168;DHT22;32931;47.778;17.806;2023-03-12T12:52:42;10.00;62.50
47168;DHT22;32931;47.778;17.806;2023-03-12T12:55:18;10.10;63.20
47168;DHT22;32931;47.778;17.806;2023-03-12T13:03:12;10.00;62.50
47168;DHT22;32931;47.778;17.806;2023-03-12T13:05:44;10.20;61.90
47168;DHT22;32931;47.778;17.806;2023-03-12T13:10:57;10.50;60.70
47168;DHT22;32931;47.778;17.806;2023-03-12T13:13:23;10.50;62.80
47168;DHT22;32931;47.778;17.806;2023-03-12T13:15:50;10.70;62.50
47168;DHT22;32931;47.778;17.806;2023-03-12T13:24:20;11.70;58.90
47168;DHT22;32931;47.778;17.806;2023-03-12T13:31:55;12.30;59.90
47168;DHT22;32931;47.778;17.806;2023-03-12T13:36:59;12.60;60.50
47168;DHT22;32931;47.778;17.806;2023-03-12T13:39:35;12.80;59.10
47168;DHT22;32931;47.778;17.806;2023-03-12T13:44:48;13.30;57.80
47168;DHT22;32931;47.778;17.806;2023-03-12T13:47:36;13.20;59.80
47168;DHT22;32931;47.778;17.806;2023-03-12T13:50:13;13.00;58.00
47168;DHT22;32931;47.778;17.806;2023-03-12T13:53:03;12.50;55.80
47168;DHT22;32931;47.778;17.806;2023-03-12T13:55:32;12.30;56.60
47168;DHT22;32931;47.778;17.806;2023-03-12T13:58:09;12.20;57.00
47168;DHT22;32931;47.778;17.806;2023-03-12T14:00:52;12.20;56.60
47168;DHT22;32931;47.778;17.806;2023-03-12T14:03:31;12.20;56.50
47168;DHT22;32931;47.778;17.806;2023-03-12T14:06:19;12.50;58.20
47168;DHT22;32931;47.778;17.806;2023-03-12T14:14:26;12.60;56.70
47168;DHT22;32931;47.778;17.806;2023-03-12T14:16:56;12.50;56.30
47168;DHT22;32931;47.778;17.806;2023-03-12T14:19:25;12.50;57.30
47168;DHT22;32931;47.778;17.806;2023-03-12T14:21:53;12.50;57.30
47168;DHT22;32931;47.778;17.806;2023-03-12T14:24:33;12.40;56.70
47168;DHT22;32931;47.778;17.806;2023-03-12T14:27:01;12.50;57.30
47168;DHT22;32931;47.778;17.806;2023-03-12T14:29:56;12.80;57.90
47168;DHT22;32931;47.778;17.806;2023-03-12T14:32:27;13.40;58.10
47168;DHT22;32931;47.778;17.806;2023-03-12T14:35:18;13.90;57.80
47168;DHT22;32931;47.778;17.806;2023-03-12T14:38:19;14.10;56.40
47168;DHT22;32931;47.778;17.806;2023-03-12T14:40:54;14.40;55.30
47168;DHT22;32931;47.778;17.806;2023-03-12T14:43:31;14.40;54.90
47168;DHT22;32931;47.778;17.806;2023-03-12T14:46:00;14.10;54.30
47168;DHT22;32931;47.778;17.806;2023-03-12T14:48:31;13.70;55.30
47168;DHT22;32931;47.778;17.806;2023-03-12T14:50:59;13.20;55.30
47168;DHT22;32931;47.778;17.806;2023-03-12T14:58:28;12.70;56.00
47168;DHT22;32931;47.778;17.806;2023-03-12T15:01:01;12.50;56.70
47168;DHT22;32931;47.778;17.806;2023-03-12T15:03:28;12.30;56.00
47168;DHT22;32931;47.778;17.806;2023-03-12T15:05:55;12.10;55.80
47168;DHT22;32931;47.778;17.806;2023-03-12T15:08:21;11.80;57.10
47168;DHT22;32931;47.778;17.806;2023-03-12T15:10:50;11.50;57.40
47168;DHT22;32931;47.778;17.806;2023-03-12T15:13:19;11.70;57.80
47168;DHT22;32931;47.778;17.806;2023-03-12T15:15:52;12.50;57.80
47168;DHT22;32931;47.778;17.806;2023-03-12T15:18:27;13.40;57.10
47168;DHT22;32931;47.778;17.806;2023-03-12T15:20:56;14.40;55.60
47168;DHT22;32931;47.778;17.806;2023-03-12T15:23:24;15.00;54.60
47168;DHT22;32931;47.778;17.806;2023-03-12T15:29:13;15.40;52.10
47168;DHT22;32931;47.778;17.806;2023-03-12T15:31:45;15.90;52.50
47168;DHT22;32931;47.778;17.806;2023-03-12T15:34:25;16.20;52.80
47168;DHT22;32931;47.778;17.806;2023-03-12T15:36:52;15.80;52.80
47168;DHT22;32931;47.778;17.806;2023-03-12T15:39:33;15.40;53.00
47168;DHT22;32931;47.778;17.806;2023-03-12T15:42:06;15.00;52.20
47168;DHT22;32931;47.778;17.806;2023-03-12T15:44:57;14.00;53.40
47168;DHT22;32931;47.778;17.806;2023-03-12T15:47:27;13.60;53.40
47168;DHT22;32931;47.778;17.806;2023-03-12T15:49:56;13.40;54.80
47168;DHT22;32931;47.778;17.806;2023-03-12T15:52:32;13.30;55.00
47168;DHT22;32931;47.778;17.806;2023-03-12T15:58:22;14.00;55.80
47168;DHT22;32931;47.778;17.806;2023-03-12T16:00:51;14.70;53.90
47168;DHT22;32931;47.778;17.806;2023-03-12T16:03:19;14.90;54.60
47168;DHT22;32931;47.778;17.806;2023-03-12T16:05:48;14.80;53.80
47168;DHT22;32931;47.778;17.806;2023-03-12T16:08:19;14.30;54.00
47168;DHT22;32931;47.778;17.806;2023-03-12T16:10:47;13.90;54.30
47168;DHT22;32931;47.778;17.806;2023-03-12T16:13:15;13.70;54.50
47168;DHT22;32931;47.778;17.806;2023-03-12T16:15:43;13.50;54.70
47168;DHT22;32931;47.778;17.806;2023-03-12T16:18:14;13.50;55.10
47168;DHT22;32931;47.778;17.806;2023-03-12T16:20:41;13.10;55.60
47168;DHT22;32931;47.778;17.806;2023-03-12T16:23:07;13.10;55.90
47168;DHT22;32931;47.778;17.806;2023-03-12T16:25:34;13.00;55.80
47168;DHT22;32931;47.778;17.806;2023-03-12T16:28:03;12.70;55.70
47168;DHT22;32931;47.778;17.806;2023-03-12T16:30:35;12.50;56.00
47168;DHT22;32931;47.778;17.806;2023-03-12T16:33:04;12.40;56.50
47168;DHT22;32931;47.778;17.806;2023-03-12T16:35:31;12.20;56.70
47168;DHT22;32931;47.778;17.806;2023-03-12T16:38:00;12.00;57.00
47168;DHT22;32931;47.778;17.806;2023-03-12T16:40:36;11.90;57.30
47168;DHT22;32931;47.778;17.806;2023-03-12T16:43:05;11.60;58.20
47168;DHT22;32931;47.778;17.806;2023-03-12T16:45:35;11.50;58.10
47168;DHT22;32931;47.778;17.806;2023-03-12T16:48:04;11.40;58.60
47168;DHT22;32931;47.778;17.806;2023-03-12T16:50:30;11.30;59.10
47168;DHT22;32931;47.778;17.806;2023-03-12T16:52:57;11.20;59.20
47168;DHT22;32931;47.778;17.806;2023-03-12T16:55:28;11.10;59.00
47168;DHT22;32931;47.778;17.806;2023-03-12T16:57:57;10.90;59.00
47168;DHT22;32931;47.778;17.806;2023-03-12T17:00:28;10.80;59.20
47168;DHT22;32931;47.778;17.806;2023-03-12T17:02:55;10.70;59.50
47168;DHT22;32931;47.778;17.806;2023-03-12T17:05:26;10.50;59.70
47168;DHT22;32931;47.778;17.806;2023-03-12T17:07:53;10.50;60.20
47168;DHT22;32931;47.778;17.806;2023-03-12T17:10:19;10.40;60.40
47168;DHT22;32931;47.778;17.806;2023-03-12T17:12:47;10.30;60.40
47168;DHT22;32931;47.778;17.806;2023-03-12T17:15:25;10.20;60.90
47168;DHT22;32931;47.778;17.806;2023-03-12T17:17:52;10.20;61.30
47168;DHT22;32931;47.778;17.806;2023-03-12T17:20:21;10.10;61.40
47168;DHT22;32931;47.778;17.806;2023-03-12T17:22:47;10.10;61.90
47168;DHT22;32931;47.778;17.806;2023-03-12T17:25:26;10.00;62.10
47168;DHT22;32931;47.778;17.806;2023-03-12T17:27:53;10.00;62.60
47168;DHT22;32931;47.778;17.806;2023-03-12T17:30:21;9.90;62.30
47168;DHT22;32931;47.778;17.806;2023-03-12T17:32:49;9.90;62.30